Time;durP1;ratioP1;P1;durP2;ratioP2;P2;SDS_P1;SDS_P2;PMS_P1;PMS_P2;Temp;Humidity;BMP_temperature;BMP_pressure;BME280_temperature;BME280_humidity;BME280_pressure;Samples;Min_cycle;Max_cycle;Signal;HPM_P1;HPM_P2
2023/12/02 00:01:47;;;;;;;17.25;8.00;;;;;;;-5.16;100.00;97494.22;6104552;19;20377;-72
2023/12/02 00:03:47;;;;;;;19.40;8.70;;;;;;;-5.18;100.00;97494.53;6104001;19;20469;-72
2023/12/02 00:05:50;;;;;;;16.75;8.23;;;;;;;-5.15;100.00;97493.91;6105143;19;20014;-72
2023/12/02 00:07:51;;;;;;;;;;;;;;;-5.19;100.00;97487.53;6104470;19;20470;-71
2023/12/02 00:09:51;;;;;;;17.42;7.43;;;;;;;-5.22;100.00;97496.22;6105410;19;19919;-72
2023/12/02 00:11:52;;;;;;;17.23;8.00;;;;;;;-5.21;100.00;97497.84;6104526;19;20018;-71
2023/12/02 00:13:52;;;;;;;17.27;8.27;;;;;;;-5.23;100.00;97489.22;6104787;19;20410;-71
2023/12/02 00:15:53;;;;;;;15.85;7.97;;;;;;;-5.24;100.00;97492.22;6103543;19;20340;-71
2023/12/02 00:17:53;;;;;;;19.80;9.30;;;;;;;-5.21;100.00;97494.34;6104247;19;20503;-71
2023/12/02 00:19:54;;;;;;;19.20;8.90;;;;;;;-5.25;100.00;97498.72;6104622;19;20003;-71
2023/12/02 00:21:54;;;;;;;16.80;7.30;;;;;;;-5.24;100.00;97498.41;6104428;19;20415;-71
2023/12/02 00:23:54;;;;;;;21.35;8.25;;;;;;;-5.27;100.00;97496.31;6104348;19;20479;-71
2023/12/02 00:25:55;;;;;;;19.73;9.32;;;;;;;-5.29;100.00;97500.44;6105222;19;20003;-71
2023/12/02 00:27:55;;;;;;;16.58;7.90;;;;;;;-5.26;100.00;97500.63;6092919;19;20003;-71
2023/12/02 00:29:56;;;;;;;18.63;8.82;;;;;;;-5.27;100.00;97517.09;6101229;19;20033;-71
2023/12/02 00:31:56;;;;;;;15.73;8.18;;;;;;;-5.27;100.00;97519.78;6103942;19;20017;-71
2023/12/02 00:33:57;;;;;;;14.52;7.63;;;;;;;-5.26;100.00;97510.59;6104100;19;20225;-71
2023/12/02 00:35:57;;;;;;;17.33;8.20;;;;;;;-5.31;100.00;97518.78;6103457;19;20297;-71
2023/12/02 00:37:57;;;;;;;15.05;8.02;;;;;;;-5.33;100.00;97499.41;6101951;19;20417;-72
2023/12/02 00:39:58;;;;;;;18.10;7.57;;;;;;;-5.36;100.00;97498.13;6104682;19;20015;-72
2023/12/02 00:41:58;;;;;;;19.83;7.78;;;;;;;-5.34;100.00;97489.72;6102909;19;20074;-71
2023/12/02 00:43:58;;;;;;;15.45;8.10;;;;;;;-5.29;100.00;97500.44;6100622;19;20010;-71
2023/12/02 00:45:59;;;;;;;18.33;7.72;;;;;;;-5.31;100.00;97498.00;6104427;19;20021;-71
2023/12/02 00:47:59;;;;;;;13.38;6.80;;;;;;;-5.31;100.00;97495.31;6102065;19;20017;-71
2023/12/02 00:50:00;;;;;;;15.63;7.03;;;;;;;-5.32;100.00;97498.31;6103354;19;20011;-71
2023/12/02 00:52:00;;;;;;;15.35;6.75;;;;;;;-5.34;100.00;97495.13;6103665;19;20040;-72
2023/12/02 00:54:00;;;;;;;13.10;6.75;;;;;;;-5.30;100.00;97504.19;6103389;19;20010;-72
2023/12/02 00:56:01;;;;;;;13.55;6.53;;;;;;;-5.26;100.00;97502.50;6103892;19;20011;-72
2023/12/02 00:58:01;;;;;;;15.52;7.55;;;;;;;-5.26;100.00;97505.22;6101433;19;20006;-71
2023/12/02 01:00:03;;;;;;;15.93;7.50;;;;;;;-5.35;100.00;97498.91;6102863;19;20003;-71
2023/12/02 01:02:06;;;;;;;10.88;5.93;;;;;;;-5.33;100.00;97505.59;6100445;19;20355;-71
2023/12/02 01:04:06;;;;;;;17.40;6.95;;;;;;;-5.42;100.00;97507.38;6103001;19;20499;-71
2023/12/02 01:06:07;;;;;;;14.13;7.00;;;;;;;-5.45;100.00;97498.00;6102901;19;20389;-71
2023/12/02 01:08:07;;;;;;;13.52;6.90;;;;;;;-5.39;100.00;97501.38;6102436;19;20007;-71
2023/12/02 01:10:11;;;;;;;15.05;7.32;;;;;;;-5.41;100.00;97500.91;6102524;19;20018;-72
2023/12/02 01:12:12;;;;;;;14.30;6.57;;;;;;;-5.43;100.00;97500.41;6103019;19;20018;-72
2023/12/02 01:14:12;;;;;;;17.20;7.05;;;;;;;-5.46;100.00;97492.91;6102249;19;20362;-71
2023/12/02 01:16:12;;;;;;;18.95;8.23;;;;;;;-5.45;100.00;97491.81;6103150;19;20002;-71
2023/12/02 01:18:13;;;;;;;18.58;6.82;;;;;;;-5.47;100.00;97485.91;6101682;19;20011;-71
2023/12/02 01:20:13;;;;;;;17.75;7.00;;;;;;;-5.43;100.00;97495.00;6101064;19;20006;-71
2023/12/02 01:22:14;;;;;;;15.02;8.00;;;;;;;-5.37;100.00;97494.63;6102608;19;20341;-71
2023/12/02 01:24:15;;;;;;;15.70;7.15;;;;;;;-5.28;100.00;97485.84;6101562;19;20006;-71
2023/12/02 01:26:15;;;;;;;16.35;7.22;;;;;;;-5.33;100.00;97473.25;6102633;19;20014;-71
2023/12/02 01:28:16;;;;;;;15.05;6.78;;;;;;;-5.34;100.00;97479.75;6095380;19;20086;-71
2023/12/02 01:30:16;;;;;;;19.42;8.43;;;;;;;-5.36;100.00;97484.63;6095316;19;20006;-71
2023/12/02 01:32:16;;;;;;;11.68;6.35;;;;;;;-5.44;100.00;97475.34;6095612;19;20032;-71
2023/12/02 01:34:17;;;;;;;14.38;7.20;;;;;;;-5.38;100.00;97473.34;6094936;19;20014;-71
2023/12/02 01:36:17;;;;;;;14.60;6.90;;;;;;;-5.44;100.00;97474.53;6096290;19;20006;-72
2023/12/02 01:38:17;;;;;;;13.60;6.88;;;;;;;-5.44;100.00;97482.63;6094364;19;20003;-71
2023/12/02 01:40:18;;;;;;;19.00;7.63;;;;;;;-5.40;100.00;97476.34;6095884;19;20427;-71
2023/12/02 01:42:19;;;;;;;15.05;6.88;;;;;;;-5.42;100.00;97477.72;6095688;19;20002;-71
2023/12/02 01:44:19;;;;;;;12.40;6.95;;;;;;;-5.36;100.00;97492.72;6095080;19;20002;-71
2023/12/02 01:46:19;;;;;;;15.27;7.00;;;;;;;-5.42;100.00;97488.53;6094760;19;20040;-71
2023/12/02 01:48:20;;;;;;;12.50;6.07;;;;;;;-5.41;100.00;97490.13;6094968;19;20002;-71
2023/12/02 01:50:21;;;;;;;12.13;6.55;;;;;;;-5.47;100.00;97496.69;6094375;19;20019;-71
2023/12/02 01:52:21;;;;;;;13.88;6.88;;;;;;;-5.43;100.00;97500.41;6095598;19;20022;-71
2023/12/02 01:54:22;;;;;;;11.15;6.28;;;;;;;-5.42;100.00;97505.50;6094734;19;20007;-71
2023/12/02 01:56:22;;;;;;;16.38;7.55;;;;;;;-5.39;100.00;97507.59;6096155;19;20544;-72
2023/12/02 01:58:22;;;;;;;15.48;7.22;;;;;;;-5.39;100.00;97507.59;6095408;19;20079;-71
2023/12/02 02:00:23;;;;;;;12.02;6.75;;;;;;;-5.42;100.00;97523.56;6096071;19;20016;-71
2023/12/02 02:02:25;;;;;;;14.77;6.40;;;;;;;-5.48;100.00;97522.84;6095818;19;20250;-71
2023/12/02 02:04:25;;;;;;;13.38;6.72;;;;;;;-5.45;100.00;97524.16;6096558;19;20013;-71
2023/12/02 02:06:26;;;;;;;12.73;6.40;;;;;;;-5.49;100.00;97531.25;6095797;19;20007;-71
2023/12/02 02:08:26;;;;;;;16.70;7.18;;;;;;;-5.48;100.00;97522.84;6095358;19;20722;-71
2023/12/02 02:10:26;;;;;;;14.13;7.03;;;;;;;-5.49;100.00;97533.94;6095088;19;20090;-71
2023/12/02 02:12:27;;;;;;;14.63;6.50;;;;;;;-5.51;100.00;97544.22;6094795;19;21131;-71
2023/12/02 02:14:27;;;;;;;11.30;6.22;;;;;;;-5.55;100.00;97551.28;6095312;19;20027;-71
2023/12/02 02:16:27;;;;;;;12.43;6.28;;;;;;;-5.56;100.00;97547.00;6096627;19;20074;-71
2023/12/02 02:18:28;;;;;;;12.07;5.63;;;;;;;-5.55;100.00;97548.59;6095673;19;20011;-72
2023/12/02 02:20:28;;;;;;;15.52;7.30;;;;;;;-5.53;100.00;97565.28;6096525;19;20007;-72
2023/12/02 02:22:29;;;;;;;15.82;6.82;;;;;;;-5.55;100.00;97564.75;6096478;19;20010;-72
2023/12/02 02:24:29;;;;;;;13.18;5.75;;;;;;;-5.47;100.00;97556.00;6095375;19;20021;-72
2023/12/02 02:26:29;;;;;;;13.15;6.75;;;;;;;-5.50;100.00;97559.28;6094583;19;20021;-72
2023/12/02 02:28:30;;;;;;;12.52;6.47;;;;;;;-5.51;100.00;97546.91;6101719;19;20070;-71
2023/12/02 02:30:30;;;;;;;12.05;5.68;;;;;;;-5.47;100.00;97559.50;6102227;19;20019;-71
2023/12/02 02:32:30;;;;;;;13.93;7.18;;;;;;;-5.47;100.00;97554.09;6101870;19;20010;-71
2023/12/02 02:34:31;;;;;;;9.95;5.53;;;;;;;-5.48;100.00;97551.69;6102008;19;20401;-71
2023/12/02 02:36:31;;;;;;;11.90;5.75;;;;;;;-5.52;100.00;97556.91;6101840;19;20010;-71
2023/12/02 02:38:31;;;;;;;12.93;6.25;;;;;;;-5.51;100.00;97549.59;6100811;19;20013;-71
2023/12/02 02:40:32;;;;;;;12.45;6.05;;;;;;;-5.46;100.00;97542.25;6101654;19;20013;-71
2023/12/02 02:42:32;;;;;;;13.25;6.20;;;;;;;-5.49;100.00;97542.03;6102335;19;20010;-71
2023/12/02 02:44:33;;;;;;;12.65;5.82;;;;;;;-5.49;100.00;97545.50;6101466;19;20029;-71
2023/12/02 02:46:33;;;;;;;12.35;5.65;;;;;;;-5.47;100.00;97537.91;6101979;19;20003;-71
2023/12/02 02:48:33;;;;;;;9.57;5.55;;;;;;;-5.50;100.00;97549.31;6101257;19;20320;-71
2023/12/02 02:50:34;;;;;;;13.68;6.45;;;;;;;-5.50;100.00;97543.91;6102479;19;20006;-72
2023/12/02 02:52:35;;;;;;;13.35;6.35;;;;;;;-5.49;100.00;97539.31;6101170;19;20317;-72
2023/12/02 02:54:35;;;;;;;12.73;6.30;;;;;;;-5.51;100.00;97519.97;6100448;19;20482;-72
2023/12/02 02:56:35;;;;;;;9.68;5.38;;;;;;;-5.51;100.00;97525.34;6100916;19;20455;-71
2023/12/02 02:58:36;;;;;;;10.77;5.90;;;;;;;-5.53;100.00;97519.47;6100731;19;20028;-71
2023/12/02 03:00:37;;;;;;;9.25;5.93;;;;;;;-5.51;100.00;97519.97;6101969;19;20026;-71
2023/12/02 03:02:38;;;;;;;11.50;6.18;;;;;;;-5.55;100.00;97506.25;6101942;19;20230;-71
2023/12/02 03:04:38;;;;;;;11.88;5.70;;;;;;;-5.57;100.00;97511.16;6100811;19;20003;-71
2023/12/02 03:06:38;;;;;;;10.55;5.60;;;;;;;-5.55;100.00;97511.66;6100994;19;20083;-71
2023/12/02 03:08:39;;;;;;;15.75;7.43;;;;;;;-5.59;100.00;97513.34;6099742;19;20373;-71
2023/12/02 03:10:39;;;;;;;10.88;5.40;;;;;;;-5.59;100.00;97509.88;6101445;19;20415;-71
2023/12/02 03:12:39;;;;;;;11.18;6.38;;;;;;;-5.60;100.00;97517.16;6101475;19;20667;-71
2023/12/02 03:14:40;;;;;;;10.05;5.53;;;;;;;-5.53;100.00;97524.84;6100354;19;20383;-71
2023/12/02 03:16:40;;;;;;;13.27;6.35;;;;;;;-5.56;100.00;97522.72;6100674;19;20014;-71
2023/12/02 03:18:40;;;;;;;12.00;5.93;;;;;;;-5.57;100.00;97523.84;6099761;19;20074;-71
2023/12/02 03:20:41;;;;;;;14.00;6.40;;;;;;;-5.61;100.00;97515.56;6101865;19;20621;-72
2023/12/02 03:22:41;;;;;;;13.20;6.63;;;;;;;-5.56;100.00;97514.66;6100421;19;20014;-72
2023/12/02 03:24:41;;;;;;;11.40;5.72;;;;;;;-5.56;100.00;97517.34;6097751;19;20002;-72
2023/12/02 03:26:42;;;;;;;12.38;6.63;;;;;;;-5.55;100.00;97521.63;6101566;19;20091;-71
2023/12/02 03:28:42;;;;;;;13.50;5.35;;;;;;;-5.54;100.00;97512.47;6100588;19;20019;-71
2023/12/02 03:30:42;;;;;;;12.32;6.13;;;;;;;-5.54;100.00;97521.34;6100897;19;20028;-71
2023/12/02 03:32:43;;;;;;;9.32;5.43;;;;;;;-5.55;100.00;97517.03;6100529;19;20007;-71
2023/12/02 03:34:43;;;;;;;13.88;5.90;;;;;;;-5.59;100.00;97518.75;6100831;19;20037;-71
2023/12/02 03:36:43;;;;;;;11.15;5.90;;;;;;;-5.57;100.00;97524.63;6100057;19;20029;-71
2023/12/02 03:38:44;;;;;;;9.50;5.78;;;;;;;-5.61;100.00;97522.84;6099879;19;20399;-71
2023/12/02 03:40:45;;;;;;;14.48;6.63;;;;;;;-5.59;100.00;97516.06;6101434;19;20710;-72
2023/12/02 03:42:46;;;;;;;12.07;6.47;;;;;;;-5.60;100.00;97525.22;6100506;19;20006;-72
2023/12/02 03:44:46;;;;;;;15.20;6.07;;;;;;;-5.58;100.00;97522.25;6100643;19;20365;-72
2023/12/02 03:46:46;;;;;;;14.05;5.82;;;;;;;-5.58;100.00;97519.53;6100454;19;20023;-72
2023/12/02 03:48:47;;;;;;;11.90;5.97;;;;;;;-5.54;100.00;97520.56;6099700;19;20007;-72
2023/12/02 03:50:48;;;;;;;14.60;6.85;;;;;;;-5.57;100.00;97518.44;6100193;19;20003;-72
2023/12/02 03:52:48;;;;;;;12.13;6.82;;;;;;;-5.57;100.00;97521.94;6099624;19;20006;-71
2023/12/02 03:54:48;;;;;;;12.43;6.82;;;;;;;-5.58;100.00;97527.63;6099797;19;20034;-71
2023/12/02 03:56:48;;;;;;;11.23;6.85;;;;;;;-5.62;100.00;97523.94;6100511;19;19999;-71
2023/12/02 03:58:50;;;;;;;14.95;7.40;;;;;;;-5.66;100.00;97518.31;6098964;19;20385;-71
2023/12/02 04:00:51;;;;;;;15.57;7.53;;;;;;;-5.58;100.00;97524.94;6100976;19;20009;-71
2023/12/02 04:02:52;;;;;;;15.77;6.75;;;;;;;-5.61;100.00;97520.16;6099941;19;20335;-72
2023/12/02 04:04:52;;;;;;;14.55;7.63;;;;;;;-5.63;100.00;97509.63;6100192;19;20070;-72
2023/12/02 04:06:53;;;;;;;14.45;6.80;;;;;;;-5.64;100.00;97524.22;6099057;19;20020;-72
2023/12/02 04:08:53;;;;;;;17.65;7.28;;;;;;;-5.58;100.00;97533.03;6099267;19;20007;-72
2023/12/02 04:10:53;;;;;;;11.52;6.38;;;;;;;-5.67;100.00;97538.28;6099618;19;20023;-71
2023/12/02 04:12:54;;;;;;;14.55;6.47;;;;;;;-5.69;100.00;97540.47;6100296;19;20015;-72
2023/12/02 04:14:55;;;;;;;13.68;6.18;;;;;;;-5.72;100.00;97543.75;6099383;19;20014;-72
2023/12/02 04:16:55;;;;;;;14.95;6.63;;;;;;;-5.77;100.00;97550.03;6098979;19;20533;-71
2023/12/02 04:18:55;;;;;;;15.88;7.43;;;;;;;-5.72;100.00;97554.53;6098440;19;20337;-71
2023/12/02 04:20:56;;;;;;;11.45;6.28;;;;;;;-5.66;100.00;97551.47;6099610;19;20025;-71
2023/12/02 04:22:56;;;;;;;14.57;6.95;;;;;;;-5.65;100.00;97544.19;6099335;19;20002;-71
2023/12/02 04:24:56;;;;;;;11.50;6.57;;;;;;;-5.65;100.00;97557.66;6099794;19;20084;-72
2023/12/02 04:26:57;;;;;;;16.27;7.57;;;;;;;-5.66;100.00;97558.75;6098872;19;20003;-72
2023/12/02 04:28:57;;;;;;;15.15;7.50;;;;;;;-5.69;100.00;97556.66;6098454;19;20010;-72
2023/12/02 04:30:57;;;;;;;12.75;7.10;;;;;;;-5.61;100.00;97555.19;6099104;19;20017;-72
2023/12/02 04:32:58;;;;;;;16.40;6.68;;;;;;;-5.61;100.00;97565.97;6099822;19;20643;-71
2023/12/02 04:34:59;;;;;;;14.75;6.85;;;;;;;-5.67;100.00;97562.53;6098713;19;20337;-71
2023/12/02 04:37:00;;;;;;;15.90;6.75;;;;;;;-5.67;100.00;97565.25;6103788;19;19998;-71
2023/12/02 04:39:00;;;;;;;18.58;7.32;;;;;;;-5.70;100.00;97572.03;6103670;19;20559;-71
2023/12/02 04:41:00;;;;;;;14.45;6.35;;;;;;;-5.75;100.00;97574.78;6105761;19;20034;-71
2023/12/02 04:43:00;;;;;;;14.50;6.43;;;;;;;-5.75;100.00;97566.72;6104610;19;20006;-71
2023/12/02 04:45:01;;;;;;;12.55;6.55;;;;;;;-5.73;100.00;97580.69;6104271;19;20002;-71
2023/12/02 04:47:01;;;;;;;14.35;7.00;;;;;;;-5.70;100.00;97584.69;6104335;19;20002;-71
2023/12/02 04:49:03;;;;;;;13.10;6.50;;;;;;;-5.69;100.00;97573.63;6104063;19;20002;-71
2023/12/02 04:51:03;;;;;;;14.00;5.97;;;;;;;-5.68;100.00;97575.22;6104647;19;20015;-71
2023/12/02 04:53:04;;;;;;;15.90;6.72;;;;;;;-5.64;100.00;97588.88;6103991;19;20010;-71
2023/12/02 04:55:05;;;;;;;14.45;6.82;;;;;;;-5.65;100.00;97581.91;6104653;19;20023;-71
2023/12/02 04:57:06;;;;;;;14.00;6.38;;;;;;;-5.66;100.00;97574.91;6103765;19;20002;-71
2023/12/02 04:59:06;;;;;;;13.35;6.45;;;;;;;-5.69;100.00;97581.72;6103439;19;20014;-71
2023/12/02 05:01:06;;;;;;;13.43;6.75;;;;;;;-5.73;100.00;97577.19;6104668;19;20021;-71
2023/12/02 05:03:07;;;;;;;15.77;6.43;;;;;;;-5.77;100.00;97582.38;6104758;19;20363;-71
2023/12/02 05:05:08;;;;;;;17.80;8.65;;;;;;;-5.77;100.00;97582.38;6102743;19;20037;-71
2023/12/02 05:07:08;;;;;;;22.10;11.35;;;;;;;-5.81;100.00;97573.25;6104646;19;20451;-71
2023/12/02 05:09:09;;;;;;;13.23;6.70;;;;;;;-5.76;100.00;97583.16;6103350;19;20079;-71
2023/12/02 05:11:18;;;;;;;15.65;7.38;;;;;;;-5.67;100.00;97584.91;6104396;19;20367;-71
2023/12/02 05:13:18;;;;;;;13.48;6.72;;;;;;;-5.68;100.00;97580.59;6104034;19;20006;-71
2023/12/02 05:15:19;;;;;;;12.75;6.68;;;;;;;-5.70;100.00;97592.78;6103139;19;20462;-71
2023/12/02 05:17:19;;;;;;;13.13;6.80;;;;;;;-5.79;100.00;97589.97;6103353;19;20017;-71
2023/12/02 05:19:19;;;;;;;14.18;7.53;;;;;;;-5.83;100.00;97580.84;6102042;19;20400;-71
2023/12/02 05:21:20;;;;;;;13.73;7.22;;;;;;;-5.80;100.00;97579.44;6103886;19;20009;-71
2023/12/02 05:23:20;;;;;;;15.75;6.93;;;;;;;-5.81;100.00;97592.13;6103849;19;20395;-71
2023/12/02 05:25:20;;;;;;;16.85;7.10;;;;;;;-5.80;100.00;97591.03;6103725;19;20010;-71
2023/12/02 05:27:21;;;;;;;16.27;7.35;;;;;;;-5.82;100.00;97585.13;6092183;19;20015;-71
2023/12/02 05:29:21;;;;;;;12.38;6.95;;;;;;;-5.72;100.00;97584.16;6101986;19;20033;-71
2023/12/02 05:31:21;;;;;;;11.90;6.50;;;;;;;-5.73;100.00;97580.69;6103529;19;20015;-71
2023/12/02 05:33:22;;;;;;;12.82;6.80;;;;;;;-5.68;100.00;97580.59;6102639;19;20018;-71
2023/12/02 05:35:22;;;;;;;13.75;6.70;;;;;;;-5.74;100.00;97587.16;6101339;19;20010;-71
2023/12/02 05:37:22;;;;;;;14.88;6.53;;;;;;;-5.79;100.00;97591.81;6103113;19;20797;-71
2023/12/02 05:39:23;;;;;;;11.85;5.90;;;;;;;-5.81;100.00;97596.72;6102247;19;20007;-71
2023/12/02 05:41:23;;;;;;;15.02;6.88;;;;;;;-5.87;100.00;97596.00;6102655;19;20463;-71
2023/12/02 05:43:24;;;;;;;14.85;6.55;;;;;;;-5.85;100.00;97587.63;6102983;19;20534;-71
2023/12/02 05:45:24;;;;;;;14.35;6.43;;;;;;;-5.83;100.00;97588.13;6103056;19;20026;-71
2023/12/02 05:47:25;;;;;;;19.60;8.00;;;;;;;-5.80;100.00;97577.56;6101111;19;20077;-71
2023/12/02 05:49:25;;;;;;;15.60;7.28;;;;;;;-5.81;100.00;97580.53;6100950;19;20093;-71
2023/12/02 05:51:26;;;;;;;15.50;7.05;;;;;;;-5.85;100.00;97584.94;6103992;19;20337;-71
2023/12/02 05:53:26;;;;;;;14.55;6.35;;;;;;;-5.85;100.00;97591.13;6101919;19;20062;-71
2023/12/02 05:55:26;;;;;;;16.25;7.60;;;;;;;-5.79;100.00;97587.25;6102060;19;20029;-71
2023/12/02 05:57:27;;;;;;;14.68;7.72;;;;;;;-5.82;100.00;97581.66;6102611;19;20062;-71
2023/12/02 05:59:27;;;;;;;14.20;7.50;;;;;;;-5.80;100.00;97599.09;6101040;19;20343;-71
2023/12/02 06:01:27;;;;;;;16.15;6.72;;;;;;;-5.80;100.00;97604.50;6101117;19;20027;-71
2023/12/02 06:03:28;;;;;;;13.68;6.80;;;;;;;-5.77;100.00;97595.84;6101748;19;20355;-71
2023/12/02 06:05:29;;;;;;;19.00;8.00;;;;;;;-5.75;100.00;97604.44;6101739;19;20014;-71
2023/12/02 06:07:29;;;;;;;15.80;6.75;;;;;;;-5.78;100.00;97607.72;6103105;19;20500;-71
2023/12/02 06:09:29;;;;;;;14.00;6.25;;;;;;;-5.82;100.00;97609.38;6100905;19;20070;-71
2023/12/02 06:11:31;;;;;;;15.05;7.30;;;;;;;-5.79;100.00;97606.13;6101611;19;20404;-71
2023/12/02 06:13:31;;;;;;;13.98;6.68;;;;;;;-5.84;100.00;97616.16;6101348;19;20332;-71
2023/12/02 06:15:32;;;;;;;16.95;7.72;;;;;;;-5.86;100.00;97619.16;6099350;19;20126;-71
2023/12/02 06:17:32;;;;;;;22.38;9.32;;;;;;;-5.84;100.00;97618.84;6101695;19;20335;-72
2023/12/02 06:19:33;;;;;;;16.15;7.10;;;;;;;-5.83;100.00;97626.66;6101144;19;20007;-72
2023/12/02 06:21:33;;;;;;;14.57;6.97;;;;;;;-5.83;100.00;97632.03;6101356;19;20526;-70
2023/12/02 06:23:33;;;;;;;13.90;7.00;;;;;;;-5.84;100.00;97632.34;6101955;19;20007;-70
2023/12/02 06:25:34;;;;;;;11.43;6.47;;;;;;;-5.83;100.00;97642.00;6101199;19;20029;-71
2023/12/02 06:27:34;;;;;;;13.85;7.15;;;;;;;-5.83;100.00;97645.50;6097077;19;20003;-71
2023/12/02 06:29:34;;;;;;;15.10;7.18;;;;;;;-5.78;100.00;97650.81;6093852;19;20010;-71
2023/12/02 06:31:35;;;;;;;17.55;7.70;;;;;;;-5.79;100.00;97648.41;6093518;19;20010;-71
2023/12/02 06:33:35;;;;;;;16.42;7.20;;;;;;;-5.79;100.00;97651.94;6093911;19;19999;-71
2023/12/02 06:35:35;;;;;;;12.98;7.00;;;;;;;-5.81;100.00;97651.38;6095016;19;20003;-71
2023/12/02 06:37:36;;;;;;;16.30;7.45;;;;;;;-5.85;100.00;97660.38;6093283;19;20023;-71
2023/12/02 06:39:36;;;;;;;14.52;6.95;;;;;;;-5.87;100.00;97649.88;6090572;19;20436;-71
2023/12/02 06:41:36;;;;;;;14.75;7.63;;;;;;;-5.89;100.00;97652.06;6090019;19;20599;-71
2023/12/02 06:43:37;;;;;;;15.25;7.25;;;;;;;-5.85;100.00;97658.47;6088860;19;20537;-71
2023/12/02 06:45:37;;;;;;;17.17;7.15;;;;;;;-5.78;100.00;97660.81;6086070;19;20074;-71
2023/12/02 06:47:37;;;;;;;14.50;6.80;;;;;;;-5.74;100.00;97662.59;6089233;19;20038;-71
2023/12/02 06:49:38;;;;;;;14.07;6.38;;;;;;;-5.77;100.00;97665.91;6087672;19;20041;-71
2023/12/02 06:51:38;;;;;;;14.73;7.05;;;;;;;-5.80;100.00;97669.16;6094766;19;20339;-72
2023/12/02 06:53:39;;;;;;;14.63;6.55;;;;;;;-5.80;100.00;97671.06;6094418;19;20006;-71
2023/12/02 06:55:39;;;;;;;11.27;6.55;;;;;;;-5.79;100.00;97669.97;6091760;19;20003;-71
2023/12/02 06:57:40;;;;;;;12.55;5.53;;;;;;;-5.76;100.00;97666.69;6093925;19;20015;-72
2023/12/02 06:59:44;;;;;;;12.45;6.53;;;;;;;-5.81;100.00;97681.03;6089940;19;20014;-71
2023/12/02 07:01:45;;;;;;;13.52;6.75;;;;;;;-5.79;100.00;97684.25;6093459;19;20110;-71
2023/12/02 07:03:45;;;;;;;13.27;6.88;;;;;;;-5.80;100.00;97681.84;6094082;19;20027;-71
2023/12/02 07:05:45;;;;;;;13.35;6.95;;;;;;;-5.79;100.00;97680.72;6095525;19;20574;-71
2023/12/02 07:07:46;;;;;;;11.93;6.72;;;;;;;-5.79;100.00;97695.03;6093813;19;20027;-71
2023/12/02 07:09:47;;;;;;;10.32;6.45;;;;;;;-5.80;100.00;97688.00;6093463;19;20277;-71
2023/12/02 07:11:47;;;;;;;17.00;6.97;;;;;;;-5.78;100.00;97680.47;6095009;19;20025;-71
2023/12/02 07:13:48;;;;;;;13.95;6.20;;;;;;;-5.80;100.00;97688.00;6093882;19;20037;-71
2023/12/02 07:15:48;;;;;;;13.63;6.93;;;;;;;-5.80;100.00;97695.31;6092401;19;20049;-71
2023/12/02 07:17:49;;;;;;;13.63;7.28;;;;;;;-5.76;100.00;97705.22;6093430;19;20006;-71
2023/12/02 07:19:49;;;;;;;14.80;6.68;;;;;;;-5.69;100.00;97704.88;6090672;19;20002;-71
2023/12/02 07:21:50;;;;;;;12.48;6.40;;;;;;;-5.66;100.00;97698.88;6092166;19;20010;-72
2023/12/02 07:23:51;;;;;;;15.73;6.72;;;;;;;-5.62;100.00;97699.13;6092915;19;20414;-71
2023/12/02 07:25:52;;;;;;;12.13;6.35;;;;;;;-5.63;100.00;97709.06;6094543;19;20017;-73
2023/12/02 07:27:52;;;;;;;10.52;5.75;;;;;;;-5.61;100.00;97714.19;6093660;19;20010;-72
2023/12/02 07:29:52;;;;;;;11.50;6.38;;;;;;;-5.66;100.00;97717.75;6098515;19;20455;-72
2023/12/02 07:31:53;;;;;;;13.40;6.18;;;;;;;-5.67;100.00;97708.84;6100633;19;20329;-72
2023/12/02 07:33:53;;;;;;;13.50;6.53;;;;;;;-5.73;100.00;97709.22;6100307;19;20358;-71
2023/12/02 07:35:53;;;;;;;12.18;6.38;;;;;;;-5.72;100.00;97714.31;6099907;19;20135;-72
2023/12/02 07:37:54;;;;;;;15.27;7.07;;;;;;;-5.66;100.00;97720.44;6099497;19;20370;-72
2023/12/02 07:39:54;;;;;;;17.35;6.38;;;;;;;-5.60;100.00;97713.09;6100452;19;20021;-71
2023/12/02 07:41:55;;;;;;;15.35;7.25;;;;;;;-5.60;100.00;97718.47;6098819;19;20322;-72
2023/12/02 07:43:55;;;;;;;13.82;7.75;;;;;;;-5.57;100.00;97718.69;6098918;19;20006;-71
2023/12/02 07:45:56;;;;;;;12.75;6.40;;;;;;;-5.50;100.00;97724.53;6101011;19;20482;-71
2023/12/02 07:47:56;;;;;;;14.38;7.05;;;;;;;-5.56;100.00;97714.91;6096016;19;20495;-72
2023/12/02 07:49:57;;;;;;;13.50;7.28;;;;;;;-5.45;100.00;97723.66;6094444;19;20013;-71
2023/12/02 07:51:58;;;;;;;14.70;7.93;;;;;;;-5.43;100.00;97719.56;6092267;19;20350;-72
2023/12/02 07:53:59;;;;;;;11.75;5.82;;;;;;;-5.40;100.00;97716.28;6096234;19;20454;-72
2023/12/02 07:55:59;;;;;;;15.55;7.38;;;;;;;-5.37;100.00;97715.69;6095977;19;20015;-72
2023/12/02 07:58:00;;;;;;;14.20;7.82;;;;;;;-5.40;100.00;97716.28;6096068;19;20010;-72
2023/12/02 08:00:00;;;;;;;12.27;6.20;;;;;;;-5.37;100.00;97720.28;6099694;19;20007;-72
2023/12/02 08:02:00;;;;;;;18.88;8.65;;;;;;;-5.36;100.00;97713.81;6099767;19;19999;-72
2023/12/02 08:04:01;;;;;;;19.25;9.13;;;;;;;-5.35;100.00;97711.91;6099085;19;19999;-72
2023/12/02 08:06:01;;;;;;;19.58;9.05;;;;;;;-5.38;100.00;97705.19;6099320;19;20002;-72
2023/12/02 08:08:01;;;;;;;15.43;6.80;;;;;;;-5.52;100.00;97707.84;6097739;19;19998;-72
2023/12/02 08:10:02;;;;;;;18.02;7.82;;;;;;;-5.43;100.00;97707.97;6098901;19;20006;-72
2023/12/02 08:12:02;;;;;;;17.67;8.20;;;;;;;-5.34;100.00;97711.63;6104682;19;20417;-72
2023/12/02 08:14:03;;;;;;;24.08;11.57;;;;;;;-5.36;100.00;97708.41;6103430;19;20003;-72
2023/12/02 08:16:03;;;;;;;15.27;7.53;;;;;;;-5.38;100.00;97715.97;6105014;19;19997;-72
2023/12/02 08:18:04;;;;;;;13.07;6.97;;;;;;;-5.30;100.00;97720.69;6102292;19;20795;-72
2023/12/02 08:20:05;;;;;;;19.83;8.60;;;;;;;-5.38;100.00;97724.91;6105369;19;19999;-72
2023/12/02 08:22:05;;;;;;;22.30;10.75;;;;;;;-5.35;100.00;97720.00;6102671;19;20018;-72
2023/12/02 08:24:06;;;;;;;20.23;8.32;;;;;;;-5.34;100.00;97725.09;6104609;19;20010;-71
2023/12/02 08:26:07;;;;;;;22.50;9.70;;;;;;;-5.42;100.00;97726.56;6104715;19;20050;-72
2023/12/02 08:28:07;;;;;;;22.38;8.30;;;;;;;-5.39;100.00;97736.75;6102515;19;20397;-72
2023/12/02 08:30:08;;;;;;;17.55;9.48;;;;;;;-5.41;100.00;97730.06;6104294;19;20003;-72
2023/12/02 08:32:08;;;;;;;23.35;11.45;;;;;;;-5.44;100.00;97744.13;6105415;19;20025;-72
2023/12/02 08:34:09;;;;;;;30.38;12.52;;;;;;;-5.42;100.00;97741.94;6103724;19;20498;-72
2023/12/02 08:36:09;;;;;;;18.15;9.20;;;;;;;-5.50;100.00;97748.78;6104395;19;20367;-72
2023/12/02 08:38:10;;;;;;;14.60;7.30;;;;;;;-5.42;100.00;97752.72;6103141;19;20935;-71
2023/12/02 08:40:10;;;;;;;14.48;7.07;;;;;;;-5.40;100.00;97751.31;6104316;19;20002;-71
2023/12/02 08:42:11;;;;;;;13.25;6.85;;;;;;;-5.36;100.00;97762.34;6102696;19;20029;-71
2023/12/02 08:44:12;;;;;;;12.98;5.82;;;;;;;-5.32;100.00;97759.84;6103690;19;20001;-71
2023/12/02 08:46:19;;;;;;;12.38;6.88;;;;;;;-5.38;100.00;97768.03;6104374;19;20006;-71
2023/12/02 08:48:19;;;;;;;12.95;6.22;;;;;;;-5.32;100.00;97763.34;6104160;19;20070;-71
2023/12/02 08:50:20;;;;;;;14.13;6.30;;;;;;;-5.30;100.00;97761.16;6104714;19;20011;-71
2023/12/02 08:52:20;;;;;;;17.95;6.97;;;;;;;-5.26;100.00;97764.09;6103872;19;20034;-72
2023/12/02 08:54:20;;;;;;;13.95;6.10;;;;;;;-5.24;100.00;97772.66;6104091;19;20033;-72
2023/12/02 08:56:21;;;;;;;13.75;6.93;;;;;;;-5.23;100.00;97772.38;6103914;19;20026;-72
2023/12/02 08:58:21;;;;;;;14.35;7.53;;;;;;;-5.21;100.00;97778.31;6103336;19;20018;-72
2023/12/02 09:00:22;;;;;;;12.23;6.55;;;;;;;-5.17;100.00;97781.19;6103306;19;20002;-72
2023/12/02 09:02:22;;;;;;;15.48;6.70;;;;;;;-5.24;100.00;97784.25;6104809;19;20098;-72
2023/12/02 09:04:22;;;;;;;17.20;8.02;;;;;;;-5.18;100.00;97782.31;6104127;19;20014;-72
2023/12/02 09:06:23;;;;;;;15.30;7.22;;;;;;;-5.19;100.00;97791.50;6104472;19;20584;-72
2023/12/02 09:08:23;;;;;;;12.45;6.63;;;;;;;-5.17;100.00;97787.41;6103227;19;20007;-72
2023/12/02 09:10:24;;;;;;;11.20;5.80;;;;;;;-5.22;100.00;97784.75;6103936;19;20454;-72
2023/12/02 09:12:24;;;;;;;10.95;5.80;;;;;;;-5.12;100.00;97790.03;6104054;19;20006;-71
2023/12/02 09:14:25;;;;;;;11.25;5.40;;;;;;;-5.03;100.00;97789.38;6103069;19;20094;-71